sensor_id;sensor_type;location;lat;lon;timestamp;temperature;humidity
72126;SHT31;59999;51.676;22.650;2023-05-07T00:00:22;4.77;88.39
72126;SHT31;59999;51.676;22.650;2023-05-07T00:03:08;4.78;88.41
72126;SHT31;59999;51.676;22.650;2023-05-07T00:05:34;4.77;88.44
72126;SHT31;59999;51.676;22.650;2023-05-07T00:08:00;4.81;88.39
72126;SHT31;59999;51.676;22.650;2023-05-07T00:10:26;4.77;88.43
72126;SHT31;59999;51.676;22.650;2023-05-07T00:12:52;4.77;88.38
72126;SHT31;59999;51.676;22.650;2023-05-07T00:15:18;4.75;88.49
72126;SHT31;59999;51.676;22.650;2023-05-07T00:17:44;4.78;88.51
72126;SHT31;59999;51.676;22.650;2023-05-07T00:20:10;4.80;88.72
72126;SHT31;59999;51.676;22.650;2023-05-07T00:22:36;4.78;88.62
72126;SHT31;59999;51.676;22.650;2023-05-07T00:25:02;4.81;88.43
72126;SHT31;59999;51.676;22.650;2023-05-07T00:27:28;4.82;88.20
72126;SHT31;59999;51.676;22.650;2023-05-07T00:29:54;4.77;88.19
72126;SHT31;59999;51.676;22.650;2023-05-07T00:32:20;4.73;88.74
72126;SHT31;59999;51.676;22.650;2023-05-07T00:34:46;4.75;88.82
72126;SHT31;59999;51.676;22.650;2023-05-07T00:37:12;4.84;88.71
72126;SHT31;59999;51.676;22.650;2023-05-07T00:39:39;4.81;88.56
72126;SHT31;59999;51.676;22.650;2023-05-07T00:42:05;4.82;88.25
72126;SHT31;59999;51.676;22.650;2023-05-07T00:44:31;4.82;88.66
72126;SHT31;59999;51.676;22.650;2023-05-07T00:46:57;4.84;88.69
72126;SHT31;59999;51.676;22.650;2023-05-07T00:49:35;4.87;88.41
72126;SHT31;59999;51.676;22.650;2023-05-07T00:52:03;4.89;88.25
72126;SHT31;59999;51.676;22.650;2023-05-07T00:54:29;4.92;88.07
72126;SHT31;59999;51.676;22.650;2023-05-07T00:56:55;4.94;87.91
72126;SHT31;59999;51.676;22.650;2023-05-07T00:59:21;4.95;87.73
72126;SHT31;59999;51.676;22.650;2023-05-07T01:01:47;4.92;87.87
72126;SHT31;59999;51.676;22.650;2023-05-07T01:04:13;4.92;87.91
72126;SHT31;59999;51.676;22.650;2023-05-07T01:06:40;4.92;87.77
72126;SHT31;59999;51.676;22.650;2023-05-07T01:09:07;4.94;87.93
72126;SHT31;59999;51.676;22.650;2023-05-07T01:11:34;4.94;87.72
72126;SHT31;59999;51.676;22.650;2023-05-07T01:14:01;4.98;87.92
72126;SHT31;59999;51.676;22.650;2023-05-07T01:16:27;4.98;87.63
72126;SHT31;59999;51.676;22.650;2023-05-07T01:18:53;4.99;87.50
72126;SHT31;59999;51.676;22.650;2023-05-07T01:21:25;4.98;87.59
72126;SHT31;59999;51.676;22.650;2023-05-07T01:23:53;5.01;87.80
72126;SHT31;59999;51.676;22.650;2023-05-07T01:26:20;4.92;87.85
72126;SHT31;59999;51.676;22.650;2023-05-07T01:28:46;4.96;88.03
72126;SHT31;59999;51.676;22.650;2023-05-07T01:31:13;4.95;88.20
72126;SHT31;59999;51.676;22.650;2023-05-07T01:33:41;4.95;88.08
72126;SHT31;59999;51.676;22.650;2023-05-07T01:36:07;4.96;87.56
72126;SHT31;59999;51.676;22.650;2023-05-07T01:38:36;5.01;87.71
72126;SHT31;59999;51.676;22.650;2023-05-07T01:41:03;5.01;87.81
72126;SHT31;59999;51.676;22.650;2023-05-07T01:43:30;4.98;87.82
72126;SHT31;59999;51.676;22.650;2023-05-07T01:45:57;4.98;87.96
72126;SHT31;59999;51.676;22.650;2023-05-07T01:48:24;4.96;87.62
72126;SHT31;59999;51.676;22.650;2023-05-07T01:50:50;4.95;87.71
72126;SHT31;59999;51.676;22.650;2023-05-07T01:53:17;4.96;87.74
72126;SHT31;59999;51.676;22.650;2023-05-07T01:55:42;5.01;87.30
72126;SHT31;59999;51.676;22.650;2023-05-07T01:58:09;4.99;87.18
72126;SHT31;59999;51.676;22.650;2023-05-07T02:00:34;4.99;87.42
72126;SHT31;59999;51.676;22.650;2023-05-07T02:03:01;5.01;87.33
72126;SHT31;59999;51.676;22.650;2023-05-07T02:05:26;5.02;87.31
72126;SHT31;59999;51.676;22.650;2023-05-07T02:07:52;5.02;86.97
72126;SHT31;59999;51.676;22.650;2023-05-07T02:10:18;5.05;87.28
72126;SHT31;59999;51.676;22.650;2023-05-07T02:12:44;5.01;87.26
72126;SHT31;59999;51.676;22.650;2023-05-07T02:15:10;5.04;87.24
72126;SHT31;59999;51.676;22.650;2023-05-07T02:17:39;5.08;87.20
72126;SHT31;59999;51.676;22.650;2023-05-07T02:20:24;5.02;87.07
72126;SHT31;59999;51.676;22.650;2023-05-07T02:22:50;5.04;86.83
72126;SHT31;59999;51.676;22.650;2023-05-07T02:25:15;5.05;86.83
72126;SHT31;59999;51.676;22.650;2023-05-07T02:27:41;5.07;86.84
72126;SHT31;59999;51.676;22.650;2023-05-07T02:30:08;5.05;86.65
72126;SHT31;59999;51.676;22.650;2023-05-07T02:32:33;5.07;86.63
72126;SHT31;59999;51.676;22.650;2023-05-07T02:34:59;5.08;86.67
72126;SHT31;59999;51.676;22.650;2023-05-07T02:37:25;5.09;86.58
72126;SHT31;59999;51.676;22.650;2023-05-07T02:39:51;5.08;86.80
72126;SHT31;59999;51.676;22.650;2023-05-07T02:42:17;5.09;86.55
72126;SHT31;59999;51.676;22.650;2023-05-07T02:44:43;5.08;86.70
72126;SHT31;59999;51.676;22.650;2023-05-07T02:47:09;5.09;86.54
72126;SHT31;59999;51.676;22.650;2023-05-07T02:49:36;5.05;86.38
72126;SHT31;59999;51.676;22.650;2023-05-07T02:52:02;5.05;86.46
72126;SHT31;59999;51.676;22.650;2023-05-07T02:54:28;5.11;86.18
72126;SHT31;59999;51.676;22.650;2023-05-07T02:56:53;5.05;86.44
72126;SHT31;59999;51.676;22.650;2023-05-07T02:59:20;5.12;85.83
72126;SHT31;59999;51.676;22.650;2023-05-07T03:01:45;5.11;86.23
72126;SHT31;59999;51.676;22.650;2023-05-07T03:04:11;5.11;86.46
72126;SHT31;59999;51.676;22.650;2023-05-07T03:06:37;5.09;86.46
72126;SHT31;59999;51.676;22.650;2023-05-07T03:09:03;5.08;86.45
72126;SHT31;59999;51.676;22.650;2023-05-07T03:11:29;5.12;86.45
72126;SHT31;59999;51.676;22.650;2023-05-07T03:13:55;5.12;86.60
72126;SHT31;59999;51.676;22.650;2023-05-07T03:16:21;5.07;86.82
72126;SHT31;59999;51.676;22.650;2023-05-07T03:18:47;5.08;86.67
72126;SHT31;59999;51.676;22.650;2023-05-07T03:21:13;5.08;86.65
72126;SHT31;59999;51.676;22.650;2023-05-07T03:23:39;5.01;86.88
72126;SHT31;59999;51.676;22.650;2023-05-07T03:26:05;4.99;87.27
72126;SHT31;59999;51.676;22.650;2023-05-07T03:28:31;4.96;87.19
72126;SHT31;59999;51.676;22.650;2023-05-07T03:30:57;4.95;87.03
72126;SHT31;59999;51.676;22.650;2023-05-07T03:33:23;5.01;87.39
72126;SHT31;59999;51.676;22.650;2023-05-07T03:35:49;5.01;87.21
72126;SHT31;59999;51.676;22.650;2023-05-07T03:38:15;5.04;87.45
72126;SHT31;59999;51.676;22.650;2023-05-07T03:40:41;5.01;87.29
72126;SHT31;59999;51.676;22.650;2023-05-07T03:43:07;4.99;87.37
72126;SHT31;59999;51.676;22.650;2023-05-07T03:45:33;5.04;87.35
72126;SHT31;59999;51.676;22.650;2023-05-07T03:47:59;4.99;87.39
72126;SHT31;59999;51.676;22.650;2023-05-07T03:50:25;4.96;87.60
72126;SHT31;59999;51.676;22.650;2023-05-07T03:52:51;4.96;87.60
72126;SHT31;59999;51.676;22.650;2023-05-07T03:55:17;4.91;87.98
72126;SHT31;59999;51.676;22.650;2023-05-07T03:57:43;4.95;87.94
72126;SHT31;59999;51.676;22.650;2023-05-07T04:00:09;4.92;87.62
72126;SHT31;59999;51.676;22.650;2023-05-07T04:02:36;4.92;87.71
72126;SHT31;59999;51.676;22.650;2023-05-07T04:05:02;4.95;87.71
72126;SHT31;59999;51.676;22.650;2023-05-07T04:07:28;4.96;87.77
72126;SHT31;59999;51.676;22.650;2023-05-07T04:09:53;4.92;87.91
72126;SHT31;59999;51.676;22.650;2023-05-07T04:12:20;4.87;88.36
72126;SHT31;59999;51.676;22.650;2023-05-07T04:14:46;4.81;88.25
72126;SHT31;59999;51.676;22.650;2023-05-07T04:17:12;4.84;88.36
72126;SHT31;59999;51.676;22.650;2023-05-07T04:19:37;4.85;88.33
72126;SHT31;59999;51.676;22.650;2023-05-07T04:22:04;4.89;88.33
72126;SHT31;59999;51.676;22.650;2023-05-07T04:24:32;4.88;88.10
72126;SHT31;59999;51.676;22.650;2023-05-07T04:26:58;4.91;88.38
72126;SHT31;59999;51.676;22.650;2023-05-07T04:29:25;4.91;87.94
72126;SHT31;59999;51.676;22.650;2023-05-07T04:31:51;4.95;87.89
72126;SHT31;59999;51.676;22.650;2023-05-07T04:34:16;4.96;87.99
72126;SHT31;59999;51.676;22.650;2023-05-07T04:36:43;5.02;86.80
72126;SHT31;59999;51.676;22.650;2023-05-07T04:39:08;4.98;87.18
72126;SHT31;59999;51.676;22.650;2023-05-07T04:41:36;4.95;87.35
72126;SHT31;59999;51.676;22.650;2023-05-07T04:44:02;4.96;87.38
72126;SHT31;59999;51.676;22.650;2023-05-07T04:46:30;4.91;87.84
72126;SHT31;59999;51.676;22.650;2023-05-07T04:48:56;4.96;87.99
72126;SHT31;59999;51.676;22.650;2023-05-07T04:51:22;5.04;87.83
72126;SHT31;59999;51.676;22.650;2023-05-07T04:53:48;4.99;87.54
72126;SHT31;59999;51.676;22.650;2023-05-07T04:56:14;4.98;87.84
72126;SHT31;59999;51.676;22.650;2023-05-07T04:58:40;4.98;87.49
72126;SHT31;59999;51.676;22.650;2023-05-07T05:01:06;4.98;87.72
72126;SHT31;59999;51.676;22.650;2023-05-07T05:03:32;4.91;87.60
72126;SHT31;59999;51.676;22.650;2023-05-07T05:05:58;4.91;87.89
72126;SHT31;59999;51.676;22.650;2023-05-07T05:08:25;4.91;88.14
72126;SHT31;59999;51.676;22.650;2023-05-07T05:10:51;4.89;88.19
72126;SHT31;59999;51.676;22.650;2023-05-07T05:13:17;4.92;87.87
72126;SHT31;59999;51.676;22.650;2023-05-07T05:15:43;4.85;88.00
72126;SHT31;59999;51.676;22.650;2023-05-07T05:18:09;4.89;87.97
72126;SHT31;59999;51.676;22.650;2023-05-07T05:20:35;4.92;87.75
72126;SHT31;59999;51.676;22.650;2023-05-07T05:23:01;4.94;87.74
72126;SHT31;59999;51.676;22.650;2023-05-07T05:25:27;4.92;87.78
72126;SHT31;59999;51.676;22.650;2023-05-07T05:27:53;4.82;88.08
72126;SHT31;59999;51.676;22.650;2023-05-07T05:30:20;4.84;88.13
72126;SHT31;59999;51.676;22.650;2023-05-07T05:32:46;4.81;88.01
72126;SHT31;59999;51.676;22.650;2023-05-07T05:35:12;4.84;88.31
72126;SHT31;59999;51.676;22.650;2023-05-07T05:37:38;4.82;88.02
72126;SHT31;59999;51.676;22.650;2023-05-07T05:40:04;4.82;88.21
72126;SHT31;59999;51.676;22.650;2023-05-07T05:42:30;4.84;88.17
72126;SHT31;59999;51.676;22.650;2023-05-07T05:44:56;4.77;88.06
72126;SHT31;59999;51.676;22.650;2023-05-07T05:47:22;4.81;87.69
72126;SHT31;59999;51.676;22.650;2023-05-07T05:49:48;4.75;88.28
72126;SHT31;59999;51.676;22.650;2023-05-07T05:52:14;4.73;88.29
72126;SHT31;59999;51.676;22.650;2023-05-07T05:54:40;4.71;88.36
72126;SHT31;59999;51.676;22.650;2023-05-07T05:57:06;4.75;88.46
72126;SHT31;59999;51.676;22.650;2023-05-07T05:59:32;4.73;88.50
72126;SHT31;59999;51.676;22.650;2023-05-07T06:01:58;4.74;87.78
72126;SHT31;59999;51.676;22.650;2023-05-07T06:04:24;4.77;88.10
72126;SHT31;59999;51.676;22.650;2023-05-07T06:06:50;4.80;87.35
72126;SHT31;59999;51.676;22.650;2023-05-07T06:09:16;4.77;88.07
72126;SHT31;59999;51.676;22.650;2023-05-07T06:11:42;4.78;88.17
72126;SHT31;59999;51.676;22.650;2023-05-07T06:14:08;4.81;87.81
72126;SHT31;59999;51.676;22.650;2023-05-07T06:16:34;4.82;87.74
72126;SHT31;59999;51.676;22.650;2023-05-07T06:19:00;4.80;87.79
72126;SHT31;59999;51.676;22.650;2023-05-07T06:21:26;4.84;88.12
72126;SHT31;59999;51.676;22.650;2023-05-07T06:23:52;4.84;87.81
72126;SHT31;59999;51.676;22.650;2023-05-07T06:26:18;4.80;87.61
72126;SHT31;59999;51.676;22.650;2023-05-07T06:28:44;4.78;87.13
72126;SHT31;59999;51.676;22.650;2023-05-07T06:31:18;4.80;87.37
72126;SHT31;59999;51.676;22.650;2023-05-07T06:33:48;4.89;87.09
72126;SHT31;59999;51.676;22.650;2023-05-07T06:36:14;4.89;87.03
72126;SHT31;59999;51.676;22.650;2023-05-07T06:38:40;4.85;87.07
72126;SHT31;59999;51.676;22.650;2023-05-07T06:41:06;4.87;87.08
72126;SHT31;59999;51.676;22.650;2023-05-07T06:43:33;4.85;86.77
72126;SHT31;59999;51.676;22.650;2023-05-07T06:45:59;4.85;87.18
72126;SHT31;59999;51.676;22.650;2023-05-07T06:48:25;4.94;87.03
72126;SHT31;59999;51.676;22.650;2023-05-07T06:50:51;4.96;86.39
72126;SHT31;59999;51.676;22.650;2023-05-07T06:53:17;5.01;86.81
72126;SHT31;59999;51.676;22.650;2023-05-07T06:55:43;5.01;86.37
72126;SHT31;59999;51.676;22.650;2023-05-07T06:58:09;4.99;86.21
72126;SHT31;59999;51.676;22.650;2023-05-07T07:00:35;4.98;86.08
72126;SHT31;59999;51.676;22.650;2023-05-07T07:03:01;5.05;86.45
72126;SHT31;59999;51.676;22.650;2023-05-07T07:05:27;5.04;85.93
72126;SHT31;59999;51.676;22.650;2023-05-07T07:07:53;5.09;85.52
72126;SHT31;59999;51.676;22.650;2023-05-07T07:10:19;5.05;85.54
72126;SHT31;59999;51.676;22.650;2023-05-07T07:12:46;5.07;85.50
72126;SHT31;59999;51.676;22.650;2023-05-07T07:15:13;5.09;85.72
72126;SHT31;59999;51.676;22.650;2023-05-07T07:17:39;5.12;85.51
72126;SHT31;59999;51.676;22.650;2023-05-07T07:20:05;5.15;84.42
72126;SHT31;59999;51.676;22.650;2023-05-07T07:22:31;5.08;85.13
72126;SHT31;59999;51.676;22.650;2023-05-07T07:24:57;5.09;85.86
72126;SHT31;59999;51.676;22.650;2023-05-07T07:27:23;5.05;85.28
72126;SHT31;59999;51.676;22.650;2023-05-07T07:29:49;5.11;85.51
72126;SHT31;59999;51.676;22.650;2023-05-07T07:32:16;5.07;85.00
72126;SHT31;59999;51.676;22.650;2023-05-07T07:34:41;5.09;85.05
72126;SHT31;59999;51.676;22.650;2023-05-07T07:37:07;5.13;85.13
72126;SHT31;59999;51.676;22.650;2023-05-07T07:39:33;5.19;85.19
72126;SHT31;59999;51.676;22.650;2023-05-07T07:42:00;5.25;84.44
72126;SHT31;59999;51.676;22.650;2023-05-07T07:44:27;5.30;84.37
72126;SHT31;59999;51.676;22.650;2023-05-07T07:46:54;5.38;83.73
72126;SHT31;59999;51.676;22.650;2023-05-07T07:49:19;5.44;84.08
72126;SHT31;59999;51.676;22.650;2023-05-07T07:51:46;5.40;84.01
72126;SHT31;59999;51.676;22.650;2023-05-07T07:54:11;5.40;83.73
72126;SHT31;59999;51.676;22.650;2023-05-07T07:56:38;5.40;83.29
72126;SHT31;59999;51.676;22.650;2023-05-07T07:59:03;5.49;83.98
72126;SHT31;59999;51.676;22.650;2023-05-07T08:01:30;5.63;82.23
72126;SHT31;59999;51.676;22.650;2023-05-07T08:03:56;5.60;82.53
72126;SHT31;59999;51.676;22.650;2023-05-07T08:06:24;5.71;82.75
72126;SHT31;59999;51.676;22.650;2023-05-07T08:08:51;5.80;82.60
72126;SHT31;59999;51.676;22.650;2023-05-07T08:11:17;5.81;82.35
72126;SHT31;59999;51.676;22.650;2023-05-07T08:13:43;5.83;81.91
72126;SHT31;59999;51.676;22.650;2023-05-07T08:16:12;5.78;82.07
72126;SHT31;59999;51.676;22.650;2023-05-07T08:18:38;5.87;81.75
72126;SHT31;59999;51.676;22.650;2023-05-07T08:21:04;5.95;81.88
72126;SHT31;59999;51.676;22.650;2023-05-07T08:23:30;6.04;81.64
72126;SHT31;59999;51.676;22.650;2023-05-07T08:25:56;6.19;81.36
72126;SHT31;59999;51.676;22.650;2023-05-07T08:28:22;6.22;81.08
72126;SHT31;59999;51.676;22.650;2023-05-07T08:30:50;6.30;81.59
72126;SHT31;59999;51.676;22.650;2023-05-07T08:33:17;6.48;81.28
72126;SHT31;59999;51.676;22.650;2023-05-07T08:35:43;6.49;79.47
72126;SHT31;59999;51.676;22.650;2023-05-07T08:38:09;6.48;79.84
72126;SHT31;59999;51.676;22.650;2023-05-07T08:40:39;6.63;79.48
72126;SHT31;59999;51.676;22.650;2023-05-07T08:43:07;6.77;78.94
72126;SHT31;59999;51.676;22.650;2023-05-07T08:45:34;6.91;79.12
72126;SHT31;59999;51.676;22.650;2023-05-07T08:48:03;6.86;78.92
72126;SHT31;59999;51.676;22.650;2023-05-07T08:50:30;6.70;78.66
72126;SHT31;59999;51.676;22.650;2023-05-07T08:52:56;6.53;79.37
72126;SHT31;59999;51.676;22.650;2023-05-07T08:55:23;6.57;79.80
72126;SHT31;59999;51.676;22.650;2023-05-07T08:57:50;6.40;79.38
72126;SHT31;59999;51.676;22.650;2023-05-07T09:00:16;6.35;79.89
72126;SHT31;59999;51.676;22.650;2023-05-07T09:02:42;6.33;78.79
72126;SHT31;59999;51.676;22.650;2023-05-07T09:05:08;6.40;78.09
72126;SHT31;59999;51.676;22.650;2023-05-07T09:07:34;6.48;78.95
72126;SHT31;59999;51.676;22.650;2023-05-07T09:10:04;6.53;79.04
72126;SHT31;59999;51.676;22.650;2023-05-07T09:12:30;6.66;79.17
72126;SHT31;59999;51.676;22.650;2023-05-07T09:14:56;6.63;78.41
72126;SHT31;59999;51.676;22.650;2023-05-07T09:17:22;6.70;79.26
72126;SHT31;59999;51.676;22.650;2023-05-07T09:19:48;6.86;78.36
72126;SHT31;59999;51.676;22.650;2023-05-07T09:22:14;6.73;77.98
72126;SHT31;59999;51.676;22.650;2023-05-07T09:24:40;6.65;78.14
72126;SHT31;59999;51.676;22.650;2023-05-07T09:27:07;6.73;77.67
72126;SHT31;59999;51.676;22.650;2023-05-07T09:29:34;6.83;77.77
72126;SHT31;59999;51.676;22.650;2023-05-07T09:32:07;6.91;76.80
72126;SHT31;59999;51.676;22.650;2023-05-07T09:34:34;6.91;77.69
72126;SHT31;59999;51.676;22.650;2023-05-07T09:37:04;7.05;77.45
72126;SHT31;59999;51.676;22.650;2023-05-07T09:39:44;7.12;76.44
72126;SHT31;59999;51.676;22.650;2023-05-07T09:42:11;7.28;77.09
72126;SHT31;59999;51.676;22.650;2023-05-07T09:44:38;7.31;76.71
72126;SHT31;59999;51.676;22.650;2023-05-07T09:47:05;7.28;75.72
72126;SHT31;59999;51.676;22.650;2023-05-07T09:49:35;7.15;76.17
72126;SHT31;59999;51.676;22.650;2023-05-07T09:52:02;7.08;76.25
72126;SHT31;59999;51.676;22.650;2023-05-07T09:54:29;7.04;76.49
72126;SHT31;59999;51.676;22.650;2023-05-07T09:56:56;7.17;75.98
72126;SHT31;59999;51.676;22.650;2023-05-07T09:59:22;7.19;75.12
72126;SHT31;59999;51.676;22.650;2023-05-07T10:01:51;7.36;75.19
72126;SHT31;59999;51.676;22.650;2023-05-07T10:04:18;7.66;75.22
72126;SHT31;59999;51.676;22.650;2023-05-07T10:06:46;7.72;74.34
72126;SHT31;59999;51.676;22.650;2023-05-07T10:09:13;7.69;74.72
72126;SHT31;59999;51.676;22.650;2023-05-07T10:11:40;7.45;75.10
72126;SHT31;59999;51.676;22.650;2023-05-07T10:14:07;7.42;74.05
72126;SHT31;59999;51.676;22.650;2023-05-07T10:16:35;7.44;73.94
72126;SHT31;59999;51.676;22.650;2023-05-07T10:19:06;7.46;74.46
72126;SHT31;59999;51.676;22.650;2023-05-07T10:21:39;7.48;73.72
72126;SHT31;59999;51.676;22.650;2023-05-07T10:24:19;7.44;74.93
72126;SHT31;59999;51.676;22.650;2023-05-07T10:26:48;7.42;74.77
72126;SHT31;59999;51.676;22.650;2023-05-07T10:34:47;7.87;72.28
72126;SHT31;59999;51.676;22.650;2023-05-07T10:37:14;7.98;72.15
72126;SHT31;59999;51.676;22.650;2023-05-07T10:39:41;8.13;71.06
72126;SHT31;59999;51.676;22.650;2023-05-07T10:42:14;8.17;71.89
72126;SHT31;59999;51.676;22.650;2023-05-07T10:44:40;8.07;72.69
72126;SHT31;59999;51.676;22.650;2023-05-07T10:47:07;8.08;72.43
72126;SHT31;59999;51.676;22.650;2023-05-07T10:49:36;7.97;71.18
72126;SHT31;59999;51.676;22.650;2023-05-07T10:52:20;7.98;71.73
72126;SHT31;59999;51.676;22.650;2023-05-07T10:57:50;8.08;71.74
72126;SHT31;59999;51.676;22.650;2023-05-07T11:05:33;7.90;72.28
72126;SHT31;59999;51.676;22.650;2023-05-07T11:08:01;8.01;71.38
72126;SHT31;59999;51.676;22.650;2023-05-07T11:10:55;8.04;71.92
72126;SHT31;59999;51.676;22.650;2023-05-07T11:13:41;8.00;71.44
72126;SHT31;59999;51.676;22.650;2023-05-07T11:16:21;7.84;72.70
72126;SHT31;59999;51.676;22.650;2023-05-07T11:18:50;7.77;72.80
72126;SHT31;59999;51.676;22.650;2023-05-07T11:24:01;7.94;71.94
72126;SHT31;59999;51.676;22.650;2023-05-07T11:26:29;8.07;71.12
72126;SHT31;59999;51.676;22.650;2023-05-07T11:28:55;8.03;70.37
72126;SHT31;59999;51.676;22.650;2023-05-07T11:31:24;8.00;70.96
72126;SHT31;59999;51.676;22.650;2023-05-07T11:33:52;7.79;71.04
72126;SHT31;59999;51.676;22.650;2023-05-07T11:36:19;7.73;72.38
72126;SHT31;59999;51.676;22.650;2023-05-07T11:38:46;7.54;73.49
72126;SHT31;59999;51.676;22.650;2023-05-07T11:41:12;7.21;75.15
72126;SHT31;59999;51.676;22.650;2023-05-07T11:43:53;7.17;74.86
72126;SHT31;59999;51.676;22.650;2023-05-07T11:46:20;7.29;75.40
72126;SHT31;59999;51.676;22.650;2023-05-07T11:48:46;7.45;74.16
72126;SHT31;59999;51.676;22.650;2023-05-07T11:51:13;7.63;73.06
72126;SHT31;59999;51.676;22.650;2023-05-07T11:53:44;7.63;72.06
72126;SHT31;59999;51.676;22.650;2023-05-07T11:56:14;7.42;74.39
72126;SHT31;59999;51.676;22.650;2023-05-07T11:58:41;7.39;75.00
72126;SHT31;59999;51.676;22.650;2023-05-07T12:01:09;7.38;75.24
72126;SHT31;59999;51.676;22.650;2023-05-07T12:03:40;7.35;74.66
72126;SHT31;59999;51.676;22.650;2023-05-07T12:06:10;7.45;74.02
72126;SHT31;59999;51.676;22.650;2023-05-07T12:08:38;7.52;73.77
72126;SHT31;59999;51.676;22.650;2023-05-07T12:11:07;7.52;74.70
72126;SHT31;59999;51.676;22.650;2023-05-07T12:13:34;7.54;73.75
72126;SHT31;59999;51.676;22.650;2023-05-07T12:16:01;7.62;73.64
72126;SHT31;59999;51.676;22.650;2023-05-07T12:18:28;7.72;72.27
72126;SHT31;59999;51.676;22.650;2023-05-07T12:20:56;7.87;71.83
72126;SHT31;59999;51.676;22.650;2023-05-07T12:23:22;7.97;71.98
72126;SHT31;59999;51.676;22.650;2023-05-07T12:25:48;8.00;72.31
72126;SHT31;59999;51.676;22.650;2023-05-07T12:28:18;7.98;72.25
72126;SHT31;59999;51.676;22.650;2023-05-07T12:30:45;8.00;72.30
72126;SHT31;59999;51.676;22.650;2023-05-07T12:33:11;8.00;71.63
72126;SHT31;59999;51.676;22.650;2023-05-07T12:35:40;8.01;72.24
72126;SHT31;59999;51.676;22.650;2023-05-07T12:38:11;8.14;71.71
72126;SHT31;59999;51.676;22.650;2023-05-07T12:40:42;8.38;70.09
72126;SHT31;59999;51.676;22.650;2023-05-07T12:43:15;8.58;70.87
72126;SHT31;59999;51.676;22.650;2023-05-07T12:45:43;8.66;70.26
72126;SHT31;59999;51.676;22.650;2023-05-07T12:48:10;8.41;69.84
72126;SHT31;59999;51.676;22.650;2023-05-07T12:50:36;8.13;70.72
72126;SHT31;59999;51.676;22.650;2023-05-07T12:53:06;7.90;71.44
72126;SHT31;59999;51.676;22.650;2023-05-07T12:55:47;7.79;71.73
72126;SHT31;59999;51.676;22.650;2023-05-07T12:58:25;7.90;72.40
72126;SHT31;59999;51.676;22.650;2023-05-07T13:00:52;7.89;71.78
72126;SHT31;59999;51.676;22.650;2023-05-07T13:03:27;7.86;71.54
72126;SHT31;59999;51.676;22.650;2023-05-07T13:05:55;7.90;72.45
72126;SHT31;59999;51.676;22.650;2023-05-07T13:08:26;8.00;72.23
72126;SHT31;59999;51.676;22.650;2023-05-07T13:10:52;8.08;71.25
72126;SHT31;59999;51.676;22.650;2023-05-07T13:13:19;8.17;71.53
72126;SHT31;59999;51.676;22.650;2023-05-07T13:15:46;8.11;70.68
72126;SHT31;59999;51.676;22.650;2023-05-07T13:18:13;8.03;71.07
72126;SHT31;59999;51.676;22.650;2023-05-07T13:20:39;7.97;71.74
72126;SHT31;59999;51.676;22.650;2023-05-07T13:23:04;7.86;71.36
72126;SHT31;59999;51.676;22.650;2023-05-07T13:25:31;7.76;71.90
72126;SHT31;59999;51.676;22.650;2023-05-07T13:27:57;7.90;72.35
72126;SHT31;59999;51.676;22.650;2023-05-07T13:30:23;8.11;70.70
72126;SHT31;59999;51.676;22.650;2023-05-07T13:32:49;8.11;69.98
72126;SHT31;59999;51.676;22.650;2023-05-07T13:35:16;8.07;70.40
72126;SHT31;59999;51.676;22.650;2023-05-07T13:37:42;7.98;70.79
72126;SHT31;59999;51.676;22.650;2023-05-07T13:40:08;7.94;71.22
72126;SHT31;59999;51.676;22.650;2023-05-07T13:42:34;7.91;71.44
72126;SHT31;59999;51.676;22.650;2023-05-07T13:45:00;7.86;70.93
72126;SHT31;59999;51.676;22.650;2023-05-07T13:47:28;7.93;71.97
72126;SHT31;59999;51.676;22.650;2023-05-07T13:49:54;8.03;71.38
72126;SHT31;59999;51.676;22.650;2023-05-07T13:52:20;8.05;70.97
72126;SHT31;59999;51.676;22.650;2023-05-07T13:54:46;8.13;70.35
72126;SHT31;59999;51.676;22.650;2023-05-07T13:57:12;8.27;69.77
72126;SHT31;59999;51.676;22.650;2023-05-07T13:59:38;8.25;68.78
72126;SHT31;59999;51.676;22.650;2023-05-07T14:02:04;8.33;69.69
72126;SHT31;59999;51.676;22.650;2023-05-07T14:04:30;8.33;68.82
72126;SHT31;59999;51.676;22.650;2023-05-07T14:06:56;8.42;69.84
72126;SHT31;59999;51.676;22.650;2023-05-07T14:09:22;8.62;68.96
72126;SHT31;59999;51.676;22.650;2023-05-07T14:11:48;8.63;68.50
72126;SHT31;59999;51.676;22.650;2023-05-07T14:14:17;8.52;67.60
72126;SHT31;59999;51.676;22.650;2023-05-07T14:16:44;8.59;69.08
72126;SHT31;59999;51.676;22.650;2023-05-07T14:19:11;8.73;68.17
72126;SHT31;59999;51.676;22.650;2023-05-07T14:21:37;8.90;67.84
72126;SHT31;59999;51.676;22.650;2023-05-07T14:24:05;8.99;65.70
72126;SHT31;59999;51.676;22.650;2023-05-07T14:26:32;8.99;65.25
72126;SHT31;59999;51.676;22.650;2023-05-07T14:28:58;8.90;66.71
72126;SHT31;59999;51.676;22.650;2023-05-07T14:31:24;8.93;66.86
72126;SHT31;59999;51.676;22.650;2023-05-07T14:33:50;8.97;67.15
72126;SHT31;59999;51.676;22.650;2023-05-07T14:36:18;8.96;66.49
72126;SHT31;59999;51.676;22.650;2023-05-07T14:38:46;8.92;66.72
72126;SHT31;59999;51.676;22.650;2023-05-07T14:41:12;8.77;67.73
72126;SHT31;59999;51.676;22.650;2023-05-07T14:43:38;8.59;67.73
72126;SHT31;59999;51.676;22.650;2023-05-07T14:46:04;8.62;68.16
72126;SHT31;59999;51.676;22.650;2023-05-07T14:48:30;8.62;66.72
72126;SHT31;59999;51.676;22.650;2023-05-07T14:50:56;8.77;67.43
72126;SHT31;59999;51.676;22.650;2023-05-07T14:53:22;8.94;66.52
72126;SHT31;59999;51.676;22.650;2023-05-07T14:55:48;9.07;66.68
72126;SHT31;59999;51.676;22.650;2023-05-07T14:58:14;9.06;65.53
72126;SHT31;59999;51.676;22.650;2023-05-07T15:00:40;9.02;65.48
72126;SHT31;59999;51.676;22.650;2023-05-07T15:03:09;8.82;65.97
72126;SHT31;59999;51.676;22.650;2023-05-07T15:05:35;8.62;66.73
72126;SHT31;59999;51.676;22.650;2023-05-07T15:08:02;8.52;67.10
72126;SHT31;59999;51.676;22.650;2023-05-07T15:10:28;8.56;67.86
72126;SHT31;59999;51.676;22.650;2023-05-07T15:12:54;8.65;67.16
72126;SHT31;59999;51.676;22.650;2023-05-07T15:15:20;8.66;67.50
72126;SHT31;59999;51.676;22.650;2023-05-07T15:17:46;8.59;66.97
72126;SHT31;59999;51.676;22.650;2023-05-07T15:20:12;8.45;67.30
72126;SHT31;59999;51.676;22.650;2023-05-07T15:22:38;8.41;68.55
72126;SHT31;59999;51.676;22.650;2023-05-07T15:25:04;8.37;68.17
72126;SHT31;59999;51.676;22.650;2023-05-07T15:27:31;8.93;65.61
72126;SHT31;59999;51.676;22.650;2023-05-07T15:29:57;10.05;63.37
72126;SHT31;59999;51.676;22.650;2023-05-07T15:32:23;11.27;59.82
72126;SHT31;59999;51.676;22.650;2023-05-07T15:34:49;12.33;54.72
72126;SHT31;59999;51.676;22.650;2023-05-07T15:37:15;13.24;54.75
72126;SHT31;59999;51.676;22.650;2023-05-07T15:39:41;13.68;53.48
72126;SHT31;59999;51.676;22.650;2023-05-07T15:42:07;13.59;53.31
72126;SHT31;59999;51.676;22.650;2023-05-07T15:44:33;13.66;53.60